createdAt,value
2018-07-23T00:01:06.140Z,18.50
2018-07-23T00:03:10.050Z,18.80
2018-07-23T00:05:13.897Z,18.80
2018-07-23T00:09:21.267Z,18.80
2018-07-23T00:11:25.152Z,19.10
2018-07-23T00:13:28.932Z,18.60
2018-07-23T00:15:32.827Z,18.70
2018-07-23T00:17:36.942Z,19.00
2018-07-23T00:19:40.812Z,18.90
2018-07-23T00:25:51.680Z,18.40
2018-07-23T00:27:55.576Z,18.40
2018-07-23T00:29:59.369Z,18.80
2018-07-23T00:32:03.272Z,18.80
2018-07-23T00:34:07.066Z,18.90
2018-07-23T00:36:11.025Z,18.30
2018-07-23T00:40:18.383Z,18.40
2018-07-23T00:42:22.309Z,18.20
2018-07-23T00:44:26.447Z,18.30
2018-07-23T00:46:30.238Z,18.70
2018-07-23T00:48:34.227Z,18.70
2018-07-23T00:50:38.024Z,18.60
2018-07-23T00:52:41.926Z,18.80
2018-07-23T00:54:45.980Z,18.30
2018-07-23T01:00:56.779Z,18.40
2018-07-23T01:03:05.766Z,18.00
2018-07-23T01:05:09.747Z,18.10
2018-07-23T01:07:13.552Z,18.60
2018-07-23T01:11:20.870Z,18.30
2018-07-23T01:13:24.737Z,18.50
2018-07-23T01:15:28.635Z,18.50
2018-07-23T01:17:34.669Z,18.00
2018-07-23T01:19:38.617Z,17.80
2018-07-23T01:21:42.574Z,17.90
2018-07-23T01:23:46.471Z,18.20
2018-07-23T01:25:50.256Z,18.30
2018-07-23T01:27:54.231Z,17.80
2018-07-23T01:32:01.530Z,17.40
2018-07-23T01:34:05.487Z,17.80
2018-07-23T01:36:09.449Z,17.80
2018-07-23T01:38:13.275Z,18.10
2018-07-23T01:40:17.296Z,18.20
2018-07-23T01:42:21.092Z,17.90
2018-07-23T01:44:25.097Z,18.20
2018-07-23T01:46:28.872Z,17.80
2018-07-23T01:48:32.753Z,17.90
2018-07-23T01:50:36.795Z,17.80
2018-07-23T01:52:40.937Z,18.20
2018-07-23T01:54:45.396Z,17.60
2018-07-23T01:56:49.322Z,17.50
2018-07-23T01:58:53.124Z,17.70
2018-07-23T02:00:57.269Z,17.80
2018-07-23T02:03:01.187Z,17.80
2018-07-23T02:05:05.128Z,17.70
2018-07-23T02:07:09.314Z,17.80
2018-07-23T02:09:13.986Z,17.40
2018-07-23T02:13:21.278Z,18.00
2018-07-23T02:15:25.109Z,17.80
2018-07-23T02:17:29.053Z,17.70
2018-07-23T02:19:32.895Z,17.40
2018-07-23T02:21:37.015Z,17.70
2018-07-23T02:25:44.317Z,17.00
2018-07-23T02:27:48.101Z,17.20
2018-07-23T02:29:51.999Z,17.30
2018-07-23T02:31:55.825Z,17.40
2018-07-23T02:36:03.045Z,17.40
2018-07-23T02:38:07.482Z,17.90
2018-07-23T02:40:11.540Z,17.10
2018-07-23T02:42:15.417Z,17.60
2018-07-23T02:44:19.263Z,17.10
2018-07-23T02:46:23.136Z,17.10
2018-07-23T02:50:30.591Z,17.30
2018-07-23T02:52:34.378Z,17.10
2018-07-23T02:54:38.228Z,17.20
2018-07-23T02:56:42.008Z,16.90
2018-07-23T02:58:46.234Z,16.90
2018-07-23T03:00:50.097Z,17.20
2018-07-23T03:02:54.124Z,17.20
2018-07-23T03:04:57.972Z,17.60
2018-07-23T03:07:03.091Z,17.20
2018-07-23T03:11:11.022Z,16.80
2018-07-23T03:17:22.201Z,17.60
2018-07-23T03:21:29.877Z,16.70
2018-07-23T03:23:33.744Z,16.80
2018-07-23T03:25:38.041Z,17.10
2018-07-23T03:27:41.868Z,17.10
2018-07-23T03:29:45.776Z,17.70
2018-07-23T03:31:49.771Z,17.40
2018-07-23T03:33:53.706Z,17.30
2018-07-23T03:35:57.608Z,17.60
2018-07-23T03:40:04.968Z,17.50
2018-07-23T03:48:19.328Z,17.40
2018-07-23T03:54:30.209Z,17.40
2018-07-23T03:58:37.640Z,17.70
2018-07-23T04:00:41.608Z,18.10
2018-07-23T04:04:49.025Z,18.00
2018-07-23T04:08:56.868Z,18.30
2018-07-23T04:11:00.776Z,18.30
2018-07-23T04:13:04.620Z,18.20
2018-07-23T04:15:08.581Z,18.30
2018-07-23T04:17:12.525Z,18.30
2018-07-23T04:19:16.591Z,18.30
2018-07-23T04:21:20.464Z,18.00
2018-07-23T04:25:28.157Z,18.60
2018-07-23T04:27:32.050Z,19.00
2018-07-23T04:29:35.905Z,18.90
2018-07-23T04:33:43.231Z,18.80
2018-07-23T04:35:47.139Z,18.40
2018-07-23T04:37:50.941Z,18.30
2018-07-23T04:52:15.849Z,18.50
2018-07-23T04:54:19.704Z,18.40
2018-07-23T04:56:23.571Z,18.70
2018-07-23T04:58:27.433Z,18.80
2018-07-23T05:02:34.995Z,18.50
2018-07-23T05:04:38.963Z,19.00
2018-07-23T05:06:42.789Z,18.90
2018-07-23T05:10:50.242Z,18.80
2018-07-23T05:12:54.142Z,18.80
2018-07-23T05:17:01.690Z,19.30
2018-07-23T05:19:05.651Z,19.40
2018-07-23T05:23:54.162Z,20.00
2018-07-23T05:28:01.520Z,19.40
2018-07-23T05:30:05.834Z,19.40
2018-07-23T05:32:09.740Z,19.60
2018-07-23T05:34:13.551Z,20.20
2018-07-23T05:36:17.412Z,19.90
2018-07-23T05:40:24.882Z,20.50
2018-07-23T05:44:32.199Z,20.00
2018-07-23T05:46:36.034Z,20.20
2018-07-23T05:48:39.972Z,20.30
2018-07-23T05:50:43.817Z,20.00
2018-07-23T05:52:47.758Z,20.30
2018-07-23T05:54:51.653Z,20.50
2018-07-23T05:56:55.538Z,20.30
2018-07-23T05:58:59.410Z,20.70
2018-07-23T06:01:03.338Z,21.00
2018-07-23T06:03:07.166Z,20.50
2018-07-23T06:05:11.215Z,20.90
2018-07-23T06:07:15.046Z,20.80
2018-07-23T06:09:18.986Z,20.60
2018-07-23T06:11:22.779Z,20.50
2018-07-23T06:13:26.691Z,20.40
2018-07-23T06:15:30.558Z,20.90
2018-07-23T06:17:34.465Z,20.90
2018-07-23T06:21:41.788Z,20.80
2018-07-23T06:25:49.157Z,20.70
2018-07-23T06:27:53.392Z,20.90
2018-07-23T06:29:57.320Z,20.80
2018-07-23T06:32:01.196Z,21.10
2018-07-23T06:36:08.714Z,21.00
2018-07-23T06:38:12.646Z,21.10
2018-07-23T06:40:16.504Z,21.00
2018-07-23T06:42:20.542Z,21.30
2018-07-23T06:44:24.356Z,21.20
2018-07-23T06:46:28.288Z,20.90
2018-07-23T06:48:32.158Z,21.20
2018-07-23T06:50:36.066Z,21.10
2018-07-23T06:52:39.873Z,21.10
2018-07-23T06:54:43.779Z,21.50
2018-07-23T06:56:47.621Z,21.30
2018-07-23T06:58:51.503Z,21.30
2018-07-23T07:00:55.340Z,21.50
2018-07-23T07:02:59.220Z,21.50
2018-07-23T07:05:04.509Z,21.50
2018-07-23T07:09:11.840Z,21.70
2018-07-23T07:11:15.750Z,21.50
2018-07-23T07:13:19.583Z,21.60
2018-07-23T07:15:23.567Z,21.80
2018-07-23T07:17:27.386Z,21.60
2018-07-23T07:19:31.313Z,22.00
2018-07-23T07:21:35.243Z,21.70
2018-07-23T07:23:39.217Z,21.70
2018-07-23T07:25:43.175Z,21.70
2018-07-23T07:27:47.077Z,21.90
2018-07-23T07:29:50.839Z,22.20
2018-07-23T07:31:54.768Z,21.70
2018-07-23T07:36:02.146Z,22.50
2018-07-23T07:38:06.064Z,22.30
2018-07-23T07:40:09.961Z,22.70
2018-07-23T07:42:13.761Z,22.00
2018-07-23T07:44:17.647Z,22.40
2018-07-23T07:46:21.581Z,22.00
2018-07-23T07:48:27.236Z,22.60
2018-07-23T07:50:31.139Z,22.70
2018-07-23T07:52:34.981Z,23.00
2018-07-23T07:54:38.892Z,23.00
2018-07-23T07:58:46.201Z,23.50
2018-07-23T08:00:50.017Z,23.40
2018-07-23T08:02:53.929Z,23.50
2018-07-23T08:04:57.782Z,23.40
2018-07-23T08:07:01.687Z,23.50
2018-07-23T08:09:07.647Z,23.80
2018-07-23T08:11:11.583Z,23.60
2018-07-23T08:13:15.451Z,23.80
2018-07-23T08:15:19.348Z,24.40
2018-07-23T08:19:27.053Z,24.40
2018-07-23T08:21:30.943Z,25.00
2018-07-23T08:23:34.897Z,26.00
2018-07-23T08:25:38.734Z,26.00
2018-07-23T08:29:46.166Z,25.70
2018-07-23T08:31:50.100Z,26.20
2018-07-23T08:33:53.886Z,26.60
2018-07-23T08:35:57.868Z,26.60
2018-07-23T08:42:09.331Z,27.00
2018-07-23T08:46:16.692Z,26.90
2018-07-23T08:48:20.737Z,26.90
2018-07-23T08:50:24.562Z,27.40
2018-07-23T08:52:28.472Z,27.90
2018-07-23T08:54:32.454Z,27.70
2018-07-23T08:56:36.421Z,27.90
2018-07-23T08:58:40.228Z,28.00
2018-07-23T09:00:44.219Z,27.70
2018-07-23T09:02:48.054Z,27.40
2018-07-23T09:06:55.627Z,27.70
2018-07-23T09:08:59.570Z,27.70
2018-07-23T09:11:03.407Z,27.80
2018-07-23T09:13:07.337Z,27.70
2018-07-23T09:17:16.391Z,29.00
2018-07-23T09:19:21.089Z,28.80
2018-07-23T09:21:25.070Z,28.70
2018-07-23T09:23:28.927Z,28.30
2018-07-23T09:25:38.078Z,29.10
2018-07-23T09:27:41.965Z,29.60
2018-07-23T09:29:45.943Z,29.60
2018-07-23T09:31:49.948Z,29.70
2018-07-23T09:33:53.760Z,29.60
2018-07-23T09:35:57.677Z,29.60
2018-07-23T09:38:01.481Z,29.60
2018-07-23T09:40:05.964Z,29.40
2018-07-23T09:42:09.729Z,29.70
2018-07-23T09:44:13.579Z,29.40
2018-07-23T09:46:17.699Z,29.80
2018-07-23T09:48:21.610Z,30.10
2018-07-23T09:50:25.459Z,29.80
2018-07-23T09:52:30.571Z,30.00
2018-07-23T09:54:34.452Z,29.60
2018-07-23T09:58:41.812Z,29.90
2018-07-23T10:00:50.976Z,29.60
2018-07-23T10:02:55.980Z,29.90
2018-07-23T10:07:04.548Z,29.70
2018-07-23T10:09:10.946Z,29.80
2018-07-23T10:11:14.890Z,29.50
2018-07-23T10:13:18.715Z,29.80
2018-07-23T10:17:26.134Z,29.80
2018-07-23T10:19:30.021Z,29.60
2018-07-23T10:21:33.835Z,29.00
2018-07-23T10:23:37.794Z,29.10
2018-07-23T10:25:41.612Z,29.10
2018-07-23T10:27:45.463Z,29.90
2018-07-23T10:29:49.290Z,30.50
2018-07-23T10:31:53.307Z,29.80
2018-07-23T10:33:57.163Z,29.20
2018-07-23T10:36:01.176Z,28.90
2018-07-23T10:38:05.001Z,28.50
2018-07-23T10:40:09.039Z,28.10
2018-07-23T10:42:12.875Z,28.10
2018-07-23T10:46:20.203Z,28.70
2018-07-23T10:48:24.060Z,29.20
2018-07-23T10:50:27.844Z,29.60
2018-07-23T10:52:31.777Z,29.80
2018-07-23T10:54:35.633Z,30.30
2018-07-23T10:56:39.517Z,30.70
2018-07-23T10:58:43.431Z,30.30
2018-07-23T11:00:47.368Z,30.30
2018-07-23T11:02:51.181Z,29.80
2018-07-23T11:06:58.502Z,30.00
2018-07-23T11:09:02.422Z,29.40
2018-07-23T11:11:06.281Z,28.70
2018-07-23T11:15:13.679Z,28.40
2018-07-23T11:17:18.750Z,28.40
2018-07-23T11:19:22.892Z,28.40
2018-07-23T11:21:26.727Z,29.20
2018-07-23T11:23:30.589Z,30.40
2018-07-23T11:25:41.037Z,30.50
2018-07-23T11:29:41.874Z,30.50
2018-07-23T11:31:45.770Z,29.60
2018-07-23T11:33:49.627Z,28.60
2018-07-23T11:35:57.057Z,28.80
2018-07-23T11:38:00.934Z,28.40
2018-07-23T11:40:04.973Z,28.00
2018-07-23T11:42:08.865Z,28.50
2018-07-23T11:44:12.679Z,28.80
2018-07-23T11:46:24.789Z,29.10
2018-07-23T11:48:20.483Z,29.20
2018-07-23T11:50:24.368Z,28.40
2018-07-23T11:54:31.975Z,29.30
2018-07-23T11:56:35.873Z,29.50
2018-07-23T11:58:39.863Z,29.60
2018-07-23T12:00:43.737Z,29.60
2018-07-23T12:02:47.683Z,29.80
2018-07-23T12:04:51.476Z,29.00
2018-07-23T12:11:02.371Z,29.70
2018-07-23T12:15:10.166Z,30.00
2018-07-23T12:17:13.949Z,29.80
2018-07-23T12:21:21.279Z,28.80
2018-07-23T12:23:25.190Z,28.70
2018-07-23T12:25:29.247Z,29.50
2018-07-23T12:27:33.227Z,29.60
2018-07-23T12:29:37.004Z,30.20
2018-07-23T12:31:40.864Z,30.40
2018-07-23T12:33:44.745Z,29.90
2018-07-23T12:35:48.698Z,29.40
2018-07-23T12:37:52.485Z,29.30
2018-07-23T12:44:03.260Z,29.80
2018-07-23T12:46:07.066Z,29.70
2018-07-23T12:48:11.142Z,29.10
2018-07-23T12:52:18.473Z,29.80
2018-07-23T12:56:25.884Z,29.80
2018-07-23T12:58:29.665Z,29.40
2018-07-23T13:00:33.566Z,29.40
2018-07-23T13:02:37.594Z,29.60
2018-07-23T13:04:41.557Z,28.90
2018-07-23T13:06:45.361Z,28.60
2018-07-23T13:08:49.341Z,29.00
2018-07-23T13:10:53.337Z,28.90
2018-07-23T13:15:01.006Z,29.40
2018-07-23T13:23:15.686Z,29.40
2018-07-23T13:25:19.628Z,29.70
2018-07-23T13:27:23.396Z,29.50
2018-07-23T13:29:28.452Z,29.70
2018-07-23T13:31:32.251Z,29.80
2018-07-23T13:37:43.975Z,30.10
2018-07-23T13:41:52.368Z,29.80
2018-07-23T13:43:56.176Z,29.30
2018-07-23T13:46:00.037Z,28.90
2018-07-23T13:48:03.960Z,28.60
2018-07-23T13:50:08.040Z,28.70
2018-07-23T13:52:11.836Z,28.90
2018-07-23T13:54:15.841Z,28.80
2018-07-23T13:56:19.763Z,28.00
2018-07-23T13:58:23.739Z,28.10
2018-07-23T14:00:27.728Z,28.10
2018-07-23T14:04:35.225Z,28.60
2018-07-23T14:06:39.707Z,28.70
2018-07-23T14:08:43.517Z,29.10
2018-07-23T14:12:51.096Z,29.60
2018-07-23T14:14:55.055Z,29.90
2018-07-23T14:17:01.145Z,29.30
2018-07-23T14:19:08.693Z,29.20
2018-07-23T14:25:26.951Z,29.10
2018-07-23T14:29:41.663Z,29.00
2018-07-23T14:31:45.642Z,28.90
2018-07-23T14:34:03.892Z,29.20
2018-07-23T14:36:07.852Z,29.00
2018-07-23T14:38:14.622Z,28.80
2018-07-23T14:40:19.829Z,29.10
2018-07-23T14:42:24.023Z,29.10
2018-07-23T14:44:28.556Z,28.90
2018-07-23T14:46:32.857Z,29.00
2018-07-23T14:50:43.893Z,28.90
2018-07-23T14:52:49.022Z,28.60
2018-07-23T14:54:53.167Z,29.00
2018-07-23T14:56:57.047Z,28.80
2018-07-23T14:59:01.997Z,28.60
2018-07-23T15:03:09.609Z,29.10
2018-07-23T15:07:17.169Z,29.40
2018-07-23T15:09:21.142Z,29.00
2018-07-23T15:11:25.032Z,28.90
2018-07-23T15:26:42.495Z,28.60
2018-07-23T16:00:12.654Z,28.40
2018-07-23T16:02:16.476Z,28.60
2018-07-23T16:04:20.343Z,28.70
2018-07-23T16:06:24.892Z,28.80
2018-07-23T16:08:28.845Z,29.00
2018-07-23T16:10:32.626Z,28.50
2018-07-23T16:12:36.854Z,29.00
2018-07-23T16:16:44.105Z,29.00
2018-07-23T16:18:47.920Z,28.60
2018-07-23T16:22:55.173Z,28.70
2018-07-23T16:24:59.115Z,28.80
2018-07-23T16:27:02.965Z,28.40
2018-07-23T16:29:06.925Z,28.70
2018-07-23T16:31:10.827Z,28.80
2018-07-23T16:33:14.765Z,28.40
2018-07-23T16:35:18.544Z,28.60
2018-07-23T16:37:22.422Z,28.40
2018-07-23T16:39:26.464Z,28.80
2018-07-23T16:45:37.843Z,28.50
2018-07-23T16:47:41.925Z,28.50
2018-07-23T16:51:49.353Z,28.40
2018-07-23T16:53:53.293Z,27.70
2018-07-23T16:55:57.252Z,28.10
2018-07-23T17:00:05.818Z,28.20
2018-07-23T17:06:16.875Z,27.90
2018-07-23T17:10:24.127Z,27.90
2018-07-23T17:12:28.008Z,27.90
2018-07-23T17:14:31.922Z,27.90
2018-07-23T17:16:35.821Z,27.90
2018-07-23T17:18:39.718Z,27.90
2018-07-23T17:20:43.510Z,28.00
2018-07-23T17:24:51.064Z,28.20
2018-07-23T17:26:55.032Z,27.90
2018-07-23T17:28:58.862Z,27.90
2018-07-23T17:35:09.721Z,28.00
2018-07-23T17:37:13.570Z,27.80
2018-07-23T17:41:20.885Z,27.70
2018-07-23T17:43:24.751Z,28.40
2018-07-23T17:51:39.938Z,28.00
2018-07-23T17:53:44.578Z,28.10
2018-07-23T17:55:48.914Z,28.30
2018-07-23T17:57:53.348Z,28.00
2018-07-23T18:02:01.313Z,27.60
2018-07-23T18:04:05.348Z,28.00
2018-07-23T18:06:09.729Z,28.00
2018-07-23T18:08:14.050Z,28.00
2018-07-23T18:10:18.117Z,28.00
2018-07-23T18:14:26.230Z,27.70
2018-07-23T18:16:30.337Z,27.70
2018-07-23T18:18:34.448Z,27.70
2018-07-23T18:20:38.751Z,27.70
2018-07-23T18:22:42.971Z,27.60
2018-07-23T18:24:47.065Z,27.60
2018-07-23T18:26:51.261Z,27.60
2018-07-23T18:28:55.691Z,27.60
2018-07-23T18:30:59.689Z,27.60
2018-07-23T18:33:03.926Z,27.70
2018-07-23T18:35:08.375Z,27.60
2018-07-23T18:37:12.465Z,27.40
2018-07-23T18:39:16.783Z,27.30
2018-07-23T18:41:20.886Z,27.20
2018-07-23T18:43:24.969Z,27.10
2018-07-23T18:45:29.092Z,27.00
2018-07-23T18:47:33.223Z,26.80
2018-07-23T18:49:49.902Z,26.90
2018-07-23T18:51:54.762Z,26.70
2018-07-23T18:53:58.923Z,26.50
2018-07-23T18:56:03.329Z,26.50
2018-07-23T18:58:07.363Z,26.20
2018-07-23T19:00:11.594Z,26.10
2018-07-23T19:02:17.511Z,25.90
2018-07-23T19:04:22.679Z,25.70
2018-07-23T19:06:26.976Z,25.60
2018-07-23T19:08:31.367Z,25.50
2018-07-23T19:10:36.735Z,25.50
2018-07-23T19:12:40.813Z,25.30
2018-07-23T19:14:45.192Z,25.20
2018-07-23T19:18:54.583Z,25.10
2018-07-23T19:20:58.963Z,25.10
2018-07-23T19:23:03.227Z,25.10
2018-07-23T19:25:07.742Z,25.10
2018-07-23T19:27:11.977Z,24.90
2018-07-23T19:29:16.410Z,24.90
2018-07-23T19:31:20.919Z,24.70
2018-07-23T19:35:28.688Z,24.90
2018-07-23T19:39:39.088Z,24.60
2018-07-23T19:47:54.085Z,24.60
2018-07-23T19:49:58.422Z,24.30
2018-07-23T19:52:02.606Z,24.30
2018-07-23T19:54:07.388Z,24.20
2018-07-23T19:56:11.796Z,24.20
2018-07-23T20:04:26.464Z,23.80
2018-07-23T20:06:30.641Z,23.60
2018-07-23T20:08:34.674Z,23.20
2018-07-23T20:12:41.951Z,23.40
2018-07-23T20:16:49.398Z,23.30
2018-07-23T20:20:56.881Z,23.20
2018-07-23T20:27:07.891Z,22.70
2018-07-23T20:31:15.300Z,23.10
2018-07-23T20:35:23.817Z,23.20
2018-07-23T20:37:27.725Z,22.90
2018-07-23T20:39:31.672Z,22.90
2018-07-23T20:43:39.073Z,22.80
2018-07-23T20:45:43.065Z,23.00
2018-07-23T20:49:50.432Z,22.90
2018-07-23T20:51:54.412Z,22.70
2018-07-23T20:53:58.385Z,22.70
2018-07-23T20:58:05.929Z,22.60
2018-07-23T21:02:13.378Z,22.30
2018-07-23T21:06:20.975Z,22.50
2018-07-23T21:10:28.328Z,22.20
2018-07-23T21:12:32.169Z,22.50
2018-07-23T21:16:39.990Z,21.90
2018-07-23T21:20:47.446Z,22.80
2018-07-23T21:24:54.792Z,22.50
2018-07-23T21:26:59.108Z,22.40
2018-07-23T21:29:03.011Z,22.30
2018-07-23T21:35:18.179Z,21.60
2018-07-23T21:39:25.848Z,21.70
2018-07-23T21:41:29.974Z,22.20
2018-07-23T21:45:37.385Z,22.20
2018-07-23T21:47:41.364Z,22.00
2018-07-23T21:49:45.346Z,22.20
2018-07-23T21:51:49.244Z,22.30
2018-07-23T21:55:56.578Z,21.90
2018-07-23T21:58:00.442Z,21.80
2018-07-23T22:00:07.263Z,21.20
2018-07-23T22:06:22.521Z,21.60
2018-07-23T22:08:26.446Z,21.90
2018-07-23T22:10:30.267Z,21.30
2018-07-23T22:12:34.231Z,21.80
2018-07-23T22:14:38.057Z,21.80
2018-07-23T22:16:41.984Z,21.50
2018-07-23T22:18:46.303Z,21.10
2018-07-23T22:20:50.150Z,21.30
2018-07-23T22:22:54.005Z,21.40
2018-07-23T22:24:57.905Z,21.80
2018-07-23T22:27:01.786Z,22.50
2018-07-23T22:29:05.807Z,21.50
2018-07-23T22:31:09.643Z,21.00
2018-07-23T22:33:14.712Z,21.00
2018-07-23T22:37:22.149Z,20.90
2018-07-23T22:39:26.223Z,21.00
2018-07-23T22:41:30.111Z,21.00
2018-07-23T22:43:33.997Z,21.20
2018-07-23T22:45:37.866Z,20.80
2018-07-23T22:47:42.005Z,21.10
2018-07-23T22:49:45.945Z,21.10
2018-07-23T22:51:49.927Z,21.00
2018-07-23T22:55:57.476Z,20.90
2018-07-23T22:58:01.345Z,20.90
2018-07-23T23:00:06.308Z,21.00
2018-07-23T23:02:10.360Z,20.40
2018-07-23T23:04:14.138Z,20.80
2018-07-23T23:06:18.021Z,21.10
2018-07-23T23:08:21.874Z,20.60
2018-07-23T23:10:25.781Z,20.80
2018-07-23T23:12:29.676Z,20.70
2018-07-23T23:14:33.524Z,20.90
2018-07-23T23:20:44.527Z,20.80
2018-07-23T23:22:48.420Z,20.80
2018-07-23T23:24:52.242Z,20.70
2018-07-23T23:26:56.142Z,20.80
2018-07-23T23:29:00.032Z,20.70
2018-07-23T23:33:07.479Z,20.60
2018-07-23T23:37:14.891Z,20.70
2018-07-23T23:39:19.894Z,20.70
2018-07-23T23:41:23.911Z,20.40
2018-07-23T23:43:27.713Z,20.40
2018-07-23T23:45:31.583Z,20.60
2018-07-23T23:47:35.456Z,20.70
2018-07-23T23:49:39.341Z,20.60
2018-07-23T23:53:46.643Z,20.60
2018-07-23T23:55:50.468Z,20.50
2018-07-23T23:57:54.306Z,20.30
2018-07-23T23:59:58.126Z,20.40
